Flight Track Log - Related Links

Times and Time Zones

All times are in EDT time to prevent confusion due to time zone crossing. See the GGN7336 flight status page for this flight to view local times or setup timezone preferences in your user account.

Time Position Orientation Groundspeed Altitude Reporting Facility
EDT Latitude Longitude Course Direction KTS MPH feet Rate Location/Type
Tue 08:46:22 PM 45.3000 -65.8667 115° Southeast 90 104 1,400  Level Moncton Center
Tue 08:47:22 PM 45.2833 -65.8167 115° Southeast 150 173 3,300 1,700 Climbing Moncton Center
Tue 08:48:22 PM 45.2667 -65.7833 125° Southeast 150 173 4,800 1,500 Climbing Moncton Center
Tue 08:49:22 PM 45.2667 -65.7000 90° East 180 207 6,300 1,450 Climbing Moncton Center
Tue 08:50:22 PM 45.2500 -65.6167 106° East 190 219 7,700 1,400 Climbing Moncton Center
Tue 08:51:22 PM 45.2333 -65.5333 106° East 210 242 9,100 1,200 Climbing Moncton Center
Tue 08:53:22 PM 45.2000 -65.3667 106° East 230 265 11,300 1,033 Climbing Moncton Center
Tue 08:54:22 PM 45.2000 -65.2833 90° East 230 265 12,200 750 Climbing Moncton Center
Tue 08:55:22 PM 45.1833 -65.1833 103° East 240 276 12,800 400 Climbing Moncton Center
Tue 08:56:22 PM 45.1667 -65.0833 103° East 250 288 13,000 100 Climbing Moncton Center
Tue 08:57:22 PM 45.1500 -64.9833 103° East 260 299 13,000  Level Moncton Center
Tue 08:58:22 PM 45.1333 -64.8667 101° East 260 299 13,000  Level Moncton Center
Tue 08:59:22 PM 45.1167 -64.7833 106° East 260 299 13,000  Level Moncton Center
Tue 09:00:22 PM 45.1000 -64.6833 103° East 260 299 13,000  Level Moncton Center
Tue 09:01:22 PM 45.1000 -64.5667 90° East 260 299 13,000  Level Moncton Center
Tue 09:02:22 PM 45.0833 -64.4667 103° East 270 311 13,000 -600 Level Moncton Center
Tue 09:03:22 PM 45.0667 -64.3500 101° East 280 322 11,800 -1,400 Descending Moncton Center
Tue 09:04:22 PM 45.0500 -64.2500 103° East 290 334 10,200 -1,600 Descending Moncton Center
Tue 09:05:22 PM 45.0333 -64.1333 101° East 280 322 8,600 -1,600 Descending Moncton Center
Tue 09:06:22 PM 45.0333 -64.0500 90° East 260 299 7,000 -1,550 Descending Moncton Center
Tue 09:07:22 PM 45.0167 -63.9500 103° East 220 253 5,500 -1,250 Descending Moncton Center
Tue 09:08:22 PM 45.0167 -63.9000 90° East 180 207 4,500 -1,050 Descending Moncton Center
Tue 09:09:22 PM 45.0000 -63.8333 109° East 160 184 3,400 -750 Descending Moncton Center
Tue 09:10:22 PM 44.9833 -63.7833 115° Southeast 150 173 3,000 -200 Descending Moncton Center
Tue 09:11:22 PM 44.9833 -63.7167 90° East 140 161 3,000  Level Moncton Center
Tue 09:12:22 PM 44.9667 -63.6833 125° Southeast 120 138 3,000  Level Moncton Center
Tue 09:13:22 PM 44.9500 -63.6333 115° Southeast 110 127 3,000 -350 Level Moncton Center
Tue 09:14:22 PM 44.9333 -63.6167 145° Southeast 110 127 2,300 -567 Descending Moncton Center
Tue 09:16:22 PM 44.9000 -63.5500 125° Southeast 100 115 1,300 -567 Descending Moncton Center
Tue 09:17:22 PM 44.8833 -63.5000 115° Southeast 110 127 600 -700 Descending Moncton Center

Login

Don't have an account? Register now (free) for customized features, flight alerts, and more!